Rockton, PA (15856)

3:50 AM EST on January 26, 2015 (GMT -0500)
Holly Terrace | Change Station
CLOSE
Current Station
Personal Weather Station
Location: Falls Creek, PA
Elevation: 1473 ft
Nearby Weather Stations
Active Advisory: Winter Weather Advisory Active Notice: Public Information Statement

Elev 1473 ft 41.14 °N, 78.81 °W | Updated 4 seconds ago

Snow
Snow
19.0 °F
Feels Like 12 °F
N
5.0
Wind Variable Wind from NW
Gusts 9.0 mph

Today
High -- | Low -- °F
--% Chance of Precip.
Yesterday
High -- | Low -- °F
Precip. -- in
7:30 AM 5:23 PM
Waxing Crescent, 41% visible
Pressure 29.81 in
Visibility 1.5 miles
Clouds Few 1100 ft
Overcast 1700 ft
Windchill 12 °F
Dew Point 18 °F
Humidity 96%
Rainfall 0.04 in
Snow Depth Not available.
UV 0 out of 12
Pollen .10 out of 12
Air Quality Not available.
Flu Activity Not available.
SPECI KFIG 260841Z AUTO 07013KT 1 1/2SM -SN BR FEW011 OVC017 M08/M09 A2981 RMK AO2 P0001 T10781094

More Conditions Fewer Conditions

Pressure 29.81 in
Visibility 1.5 miles
Clouds Few 1100 ft
Overcast 1700 ft
Windchill 12 °F
Dew Point 18 °F
Humidity 96%
Rainfall 0.04 in
Snow Depth Not available.
UV 0 out of 12
Pollen .10 out of 12
Air Quality Not available.
Flu Activity Not available.
SPECI KFIG 260841Z AUTO 07013KT 1 1/2SM -SN BR FEW011 OVC017 M08/M09 A2981 RMK AO2 P0001 T10781094

More Conditions Fewer Conditions

10-Day Weather Forecast

Almanac

Astronomy

Jan. 26, 2015 Rise Set
Actual Time
Civil Twilight
Nautical Twilight
Astronomical Twilight
Moon
Length of Visible Light
Length of Day
Tomorrow will be .
, % of the Moon is Illuminated

Today's Extremes

State Highs State Lows

Community

WunderPhotos

Upload Photos

1,790,163 photos uploaded!

WunderBlogs® & News

Nearby

Air Quality

  Air Quality AQ Index Pollutant
Not available.

Snow Depth

Station Depth Elevation

Earthquake Activity

City Distance Mag. Time & Date
Minimum magnitude displayed is 2.5.

Coastal Water Temperatures

Place Temperature

Nearby Weather Stations